createdAt,value
2022-11-09T00:13:23.933Z,7.31
2022-11-09T00:28:16.735Z,10.91
2022-11-09T00:43:07.497Z,9.79
2022-11-09T00:57:59.482Z,12.39
2022-11-09T01:12:50.699Z,10.10
2022-11-09T01:27:46.226Z,12.40
2022-11-09T01:42:43.530Z,11.28
2022-11-09T01:57:46.059Z,12.54
2022-11-09T02:12:43.297Z,10.74
2022-11-09T02:27:37.227Z,13.98
2022-11-09T02:42:30.605Z,15.34
2022-11-09T02:57:23.542Z,15.77
2022-11-09T03:12:29.823Z,13.81
2022-11-09T03:27:26.210Z,14.76
2022-11-09T03:42:26.434Z,16.53
2022-11-09T04:12:22.767Z,14.77
2022-11-09T04:27:16.136Z,10.30
2022-11-09T04:42:08.776Z,11.69
2022-11-09T04:57:00.149Z,6.21
2022-11-09T05:11:52.410Z,6.40
2022-11-09T05:26:44.779Z,4.82
2022-11-09T05:41:36.301Z,7.47
2022-11-09T05:56:28.148Z,5.58
2022-11-09T06:11:23.936Z,5.31
2022-11-09T06:26:12.536Z,4.33
2022-11-09T06:41:04.151Z,4.01
2022-11-09T06:55:58.941Z,3.34
2022-11-09T07:10:52.811Z,3.12
2022-11-09T07:25:49.689Z,3.73
2022-11-09T07:40:42.903Z,15.32
2022-11-09T07:55:35.197Z,10.73
2022-11-09T08:10:27.794Z,6.98
2022-11-09T08:25:22.609Z,5.20
2022-11-09T08:40:15.215Z,6.91
2022-11-09T08:55:07.067Z,5.87
2022-11-09T09:10:00.755Z,3.80
2022-11-09T09:24:54.235Z,4.28
2022-11-09T09:39:47.581Z,6.60
2022-11-09T09:54:40.172Z,4.57
2022-11-09T10:09:34.028Z,3.96
2022-11-09T10:24:31.118Z,3.69
2022-11-09T10:39:26.595Z,2.30
2022-11-09T10:54:21.236Z,2.60
2022-11-09T11:09:16.506Z,3.10
2022-11-09T11:24:18.098Z,2.77
2022-11-09T11:39:33.047Z,4.14
2022-11-09T11:54:31.524Z,4.21
2022-11-09T12:09:35.020Z,2.46
2022-11-09T12:24:34.258Z,2.37
2022-11-09T12:39:43.938Z,2.38
2022-11-09T12:54:39.652Z,2.72
2022-11-09T13:24:31.580Z,3.01
2022-11-09T13:54:35.874Z,3.93
2022-11-09T14:24:40.636Z,4.53
2022-11-09T14:39:34.039Z,7.58
2022-11-09T14:54:25.713Z,4.07
2022-11-09T15:09:18.167Z,7.27
2022-11-09T15:24:09.655Z,7.43
2022-11-09T15:39:07.815Z,5.27
2022-11-09T15:54:03.196Z,4.60
2022-11-09T16:24:00.524Z,5.27
2022-11-09T16:38:53.741Z,7.23
2022-11-09T16:53:47.788Z,6.92
2022-11-09T17:08:39.721Z,6.13
2022-11-09T17:23:32.192Z,5.74
2022-11-09T17:38:23.830Z,9.08
2022-11-09T17:53:15.669Z,6.90
2022-11-09T18:08:06.454Z,5.16
2022-11-09T18:22:57.993Z,7.02
2022-11-09T18:37:56.486Z,5.61
2022-11-09T18:52:52.473Z,3.29
2022-11-09T19:07:46.646Z,4.67
2022-11-09T19:22:38.738Z,5.87
2022-11-09T19:37:29.639Z,8.18
2022-11-09T19:52:21.982Z,10.67
2022-11-09T20:07:14.227Z,7.87
2022-11-09T20:52:15.692Z,9.97
2022-11-09T21:07:08.171Z,21.87
2022-11-09T21:22:05.727Z,21.37
2022-11-09T21:36:52.371Z,21.77
2022-11-09T22:06:55.662Z,22.71
2022-11-09T22:21:47.269Z,20.13
2022-11-09T22:36:38.796Z,21.18
2022-11-09T22:51:30.519Z,17.16
2022-11-09T23:06:22.936Z,18.18
2022-11-09T23:21:14.267Z,17.83
2022-11-09T23:36:06.346Z,16.69
2022-11-09T23:50:59.341Z,15.16
